Latest Coastal Weather Observations for Port Lincoln Airport

IDS60701

Issued at 6:25 pm CDT Wednesday 26 November 2014 (issued every 10 minutes, with the page automatically refreshed every 10 minutes)

About coastal observations | Map of coastal stations | Coastal observations for SA | Marine services | Other Formats
Station Details ID: 018192 Name: PORT LINCOLN AWS Lat: -34.60 Lon: 135.88 Height: 8.5 m
Data from the previous 72 hours. | See also: Recent months at Port Lincoln Airport
Date/Time
CDT
Temp

°C
Wind Pressure Rain
since 9am
mm
Weather Cloud Vis
km
Sea
Height
m
Swell
Dir
 
Speed
knots
Gust
knots
hPa Trend Height
m
Period
s
Dir
26/06:00pm 18.5 SSE 12 16 1022.9 - - - - 10 - - - -
26/05:30pm 18.9 SE 15 18 1023.0 - - - - 10 - - - -
26/05:00pm 18.8 SE 16 20 1022.9 - - - - - - - - -
26/04:30pm 18.8 SE 15 22 1023.1 - 0.2 - - 10 - - - -
26/04:00pm 20.2 SE 13 16 1023.3 - 0.0 - Partly cloudy 10 - - - -
26/03:30pm 19.4 SE 13 17 1023.4 - 0.0 - - 10 - - - -
26/03:00pm 19.4 SE 14 18 1023.4 - 0.0 - - 10 - - - -
26/02:30pm 19.9 SE 12 17 1023.7 - 0.0 - - 10 - - - -
26/02:00pm 19.2 SE 11 16 1024.1 - 0.0 - - 10 - - - -
26/01:30pm 19.6 ESE 9 15 1024.3 - 0.0 - Partly cloudy 10 - - - -
26/01:00pm 19.0 SE 10 15 1024.3 - 0.0 - Partly cloudy 10 - - - -
26/12:30pm 18.6 ESE 11 16 1024.5 - 0.0 - Partly cloudy 10 - - - -
26/12:00pm 19.5 SE 9 13 1024.7 - 0.0 - Partly cloudy 10 - - - -
26/11:30am 19.0 ESE 12 16 1024.7 - 0.0 - Partly cloudy 10 - - - -
26/11:00am 17.8 SSE 10 15 1024.8 - 0.0 - Partly cloudy 10 - - - -
26/10:30am 19.0 ESE 9 13 1024.9 - 0.0 - Cloudy 10 - - - -
26/10:00am 17.3 SE 9 13 1025.0 - 0.0 - Cloudy 10 - - - -
26/09:30am 16.6 ESE 9 13 1025.1 - 0.0 - Cloudy 10 - - - -
26/09:00am 16.7 ESE 10 13 1025.0 - 0.0 - Mostly cloudy 10 - - - -
26/08:30am 16.7 ESE 9 11 1024.7 - 0.0 - Partly cloudy 10 - - - -
26/08:00am 17.0 ESE 10 12 1024.3 - 0.0 - Partly cloudy 10 - - - -
26/07:30am 15.7 ESE 9 10 1023.8 - 0.0 - Partly cloudy 10 - - - -
26/07:00am 15.4 ESE 8 11 1023.4 - 0.0 - Partly cloudy 10 - - - -
26/06:30am 14.8 ESE 9 12 1022.9 - 0.0 - Partly cloudy 10 - - - -
26/06:00am 14.4 ESE 9 12 1022.5 - 0.0 - Cloudy 10 - - - -
26/05:30am 14.0 SE 10 13 1022.3 - 0.0 - Partly cloudy 10 - - - -
26/05:00am 14.1 SE 9 12 1022.4 - 0.0 - Partly cloudy 10 - - - -
26/04:30am 14.2 SSE 10 12 1022.2 - 0.0 - Partly cloudy 10 - - - -
26/04:00am 13.9 SSE 10 13 1022.1 - 0.0 - Partly cloudy 10 - - - -
26/03:30am 14.0 SSE 9 11 1022.3 - 0.0 - Partly cloudy 10 - - - -
26/03:00am 14.0 SSE 10 13 1022.3 - 0.0 - Partly cloudy 10 - - - -
26/02:30am 13.8 SSE 10 13 1022.5 - 0.0 - - 10 - - - -
26/02:00am 14.2 SSE 10 13 1023.0 - 0.0 - Partly cloudy 10 - - - -
26/01:30am 14.2 SSE 10 13 1023.2 - 0.0 - - 10 - - - -
26/01:00am 13.9 SSE 9 11 1023.6 - 0.0 - - 10 - - - -
26/12:30am 14.1 SSE 11 14 1023.6 - 0.0 - - 10 - - - -
26/12:00am 14.3 SSE 12 14 1023.9 - 0.0 - - 10 - - - -
 
Date/Time
CDT
Temp

°C
Wind Pressure Rain
since 9am
mm
Weather Cloud Vis
km
Sea
Height
m
Swell
Dir
 
Speed
knots
Gust
knots
hPa Trend Height
m
Period
s
Dir
25/11:30pm 14.3 SSE 11 13 1024.0 - 0.0 - Partly cloudy 10 - - - -
25/11:00pm 14.4 SSE 11 14 1024.2 - 0.0 - - 10 - - - -
25/10:30pm 14.4 SSE 10 12 1024.4 - 0.0 - Partly cloudy 10 - - - -
25/10:00pm 14.7 SE 11 13 1024.3 - 0.0 - Partly cloudy 10 - - - -
25/09:30pm 15.1 SE 12 16 1024.0 - 0.0 - Partly cloudy 10 - - - -
25/09:00pm 14.9 SSE 10 13 1023.8 - 0.0 - - 10 - - - -
25/08:30pm 15.4 S 13 16 1023.7 - 0.0 - - 10 - - - -
25/08:00pm 16.1 S 13 17 1023.7 - 0.0 - - 10 - - - -
25/07:30pm 16.2 S 12 16 1023.5 - 0.0 - - 10 - - - -
25/07:00pm 16.9 S 14 17 1023.0 - 0.0 - Partly cloudy 10 - - - -
25/06:30pm 18.0 S 14 18 1022.6 - 0.0 - Partly cloudy 10 - - - -
25/06:00pm 18.7 S 15 18 1022.3 - 0.0 - Partly cloudy 10 - - - -
25/05:30pm 18.0 S 17 22 1022.2 - 0.0 - Partly cloudy 10 - - - -
25/05:00pm 19.6 S 17 21 1022.1 - 0.0 - Partly cloudy 10 - - - -
25/04:30pm 20.1 S 16 21 1022.3 - 0.0 - Partly cloudy 10 - - - -
25/04:00pm 20.8 S 15 19 1022.4 - 0.0 - Partly cloudy 10 - - - -
25/03:30pm 21.1 SSE 15 20 1022.7 - 0.0 - Partly cloudy 10 - - - -
25/03:00pm 20.2 SSE 15 19 1023.0 - 0.0 - Mostly cloudy 10 - - - -
25/02:30pm 20.2 ESE 11 18 1023.2 - 0.0 - Partly cloudy 10 - - - -
25/02:00pm 20.1 SE 11 16 1023.2 - 0.0 - Partly cloudy 10 - - - -
25/01:30pm 20.4 SE 12 16 1023.2 - 0.0 - Partly cloudy 10 - - - -
25/01:00pm 19.9 SE 11 16 1023.4 - 0.0 - Partly cloudy 10 - - - -
25/12:30pm 20.1 ESE 11 14 1023.4 - 0.0 - Partly cloudy 10 - - - -
25/12:00pm 20.1 SSE 10 15 1023.5 - 0.0 - Mostly cloudy 10 - - - -
25/11:30am 18.1 SSE 6 9 1023.7 - 0.0 - Partly cloudy 10 - - - -
25/11:00am 18.9 SSE 4 7 1023.9 - 0.0 - Partly cloudy 10 - - - -
25/10:30am 18.2 SE 6 11 1024.0 - 0.0 - Cloudy 10 - - - -
25/10:00am 18.9 SSE 6 11 1024.2 - 0.0 - Partly cloudy 10 - - - -
25/09:30am 18.0 SSE 9 11 1024.2 - 0.0 - Partly cloudy 10 - - - -
25/09:00am 17.2 S 4 8 1024.1 - 0.0 - Mostly cloudy 10 - - - -
25/08:30am 15.9 SW 6 8 1023.8 - 0.0 - Cloudy 10 - - - -
25/08:00am 15.3 WSW 6 8 1023.5 - 0.0 - Partly cloudy 10 - - - -
25/07:30am 14.9 WSW 4 5 1023.3 - 0.0 - Partly cloudy 10 - - - -
25/07:00am 14.0 WSW 6 8 1023.0 - 0.0 - Partly cloudy 10 - - - -
25/06:30am 12.3 W 4 7 1022.8 - 0.0 - Cloudy 10 - - - -
25/06:00am 9.4 WNW 4 6 1022.3 - 0.0 - - 10 - - - -
25/05:30am 11.7 WSW 7 9 1021.9 - 0.0 - Partly cloudy 10 - - - -
25/05:00am 10.9 WSW 8 9 1021.7 - 0.0 - - 10 - - - -
25/04:30am 11.1 WSW 8 9 1021.5 - 0.0 - Partly cloudy 10 - - - -
25/04:00am 11.1 WSW 6 7 1021.6 - 0.0 - Partly cloudy 10 - - - -
25/03:30am 11.8 W 5 6 1021.4 - 0.0 - Partly cloudy 10 - - - -
25/03:00am 13.2 WSW 6 7 1021.4 - 0.0 - Cloudy 10 - - - -
25/02:30am 10.3 W 6 7 1021.3 - 0.0 - Partly cloudy 10 - - - -
25/02:00am 11.0 W 8 9 1021.4 - 0.0 - Partly cloudy 10 - - - -
25/01:30am 10.9 W 7 9 1021.4 - 0.0 - - 10 - - - -
25/01:00am 11.7 WSW 8 10 1021.5 - 0.0 - - 10 - - - -
25/12:30am 11.4 WSW 6 8 1021.4 - 0.0 - - 10 - - - -
25/12:00am 11.9 WSW 7 10 1021.2 - 0.0 - - 10 - - - -
 
Date/Time
CDT
Temp

°C
Wind Pressure Rain
since 9am
mm
Weather Cloud Vis
km
Sea
Height
m
Swell
Dir
 
Speed
knots
Gust
knots
hPa Trend Height
m
Period
s
Dir
24/11:30pm 12.5 WSW 5 6 1021.2 - 0.0 - - 10 - - - -
24/11:00pm 13.5 SSW 10 13 1021.0 - 0.0 - - 10 - - - -
24/10:30pm 13.7 SSW 10 14 1021.0 - 0.0 - - 10 - - - -
24/10:00pm 13.2 SW 6 8 1020.9 - 0.0 - - 10 - - - -
24/09:30pm 13.7 SW 8 10 1020.5 - 0.0 - - 10 - - - -
24/09:00pm 14.2 SW 8 10 1020.3 - 0.0 - - 10 - - - -
24/08:30pm 15.1 SW 11 15 1020.0 - 0.0 - - 10 - - - -
24/08:00pm 15.9 SW 12 15 1019.6 - 0.0 - Partly cloudy 10 - - - -
24/07:30pm 17.0 SW 13 19 1019.2 - 0.0 - Partly cloudy 10 - - - -
24/07:00pm 17.8 SW 14 20 1018.7 - 0.0 - Partly cloudy 10 - - - -
24/06:30pm 18.2 SSW 16 20 1018.3 - 0.0 - Partly cloudy 10 - - - -
24/06:00pm 19.0 SW 17 25 1018.1 - 0.0 - Mostly clear 10 - - - -
24/05:30pm 19.2 SW 17 27 1017.8 - 0.0 - Partly cloudy 10 - - - -
24/05:29pm 20.2 SW 16 27 1017.7 - 0.0 - Partly cloudy 10 - - - -
24/05:00pm 20.0 SSW 18 26 1017.8 - 0.0 - Partly cloudy 10 - - - -
24/04:30pm 20.1 SW 19 24 1017.5 - 0.0 - Partly cloudy 10 - - - -
24/04:00pm 19.8 SW 18 25 1017.4 - 0.0 - Partly cloudy 10 - - - -
24/03:30pm 21.2 SW 17 24 1017.2 - 0.0 - Partly cloudy 10 - - - -
24/03:00pm 20.8 WSW 18 26 1017.0 - 0.0 - - 10 - - - -
24/02:30pm 21.7 WSW 16 23 1017.0 - 0.0 - - 10 - - - -
24/02:00pm 20.7 WSW 17 24 1016.9 - 0.0 - - 10 - - - -
24/01:47pm 21.2 SW 17 28 1016.8 - 0.0 - Partly cloudy 10 - - - -
24/01:30pm 21.8 WSW 16 22 1016.9 - 0.0 - Partly cloudy 10 - - - -
24/01:00pm 21.4 SW 17 25 1016.8 - 0.0 - - 10 - - - -
24/12:30pm 20.7 SW 17 25 1016.7 - 0.0 - Partly cloudy 10 - - - -
24/12:00pm 20.8 SW 17 25 1016.4 - 0.0 - Mostly clear 10 - - - -
24/11:30am 20.9 SW 17 26 1016.0 - 0.0 - Partly cloudy 10 - - - -
24/11:00am 20.7 SW 17 22 1015.9 - 0.0 - Partly cloudy 10 - - - -
24/10:44am 20.8 SW 15 25 1015.8 - 0.0 - Partly cloudy 10 - - - -
24/10:30am 20.2 SSW 17 24 1015.8 - 0.0 - Partly cloudy 10 - - - -
24/10:00am 18.2 SW 16 24 1015.7 - 0.0 - Partly cloudy 10 - - - -
24/09:31am 18.6 SW 15 25 1015.4 - 0.0 - Partly cloudy 10 - - - -
24/09:30am 18.9 SW 14 20 1015.4 - 0.0 - Partly cloudy 10 - - - -
24/09:00am 18.0 SSW 15 20 1015.0 - 0.0 - Cloudy 10 - - - -
24/08:30am 17.6 SW 13 17 1014.6 - 0.0 - Partly cloudy 10 - - - -
24/08:00am 18.4 SSW 15 22 1013.9 - 0.0 - Partly cloudy 10 - - - -
24/07:30am 16.8 SW 11 15 1013.5 - 0.0 - - 10 - - - -
24/07:00am 15.0 S 5 6 1013.1 - 0.0 - Partly cloudy 10 - - - -
24/06:30am 13.1 WSW 4 5 1012.9 - 0.0 - Partly cloudy 10 - - - -
24/06:00am 12.4 W 5 6 1012.4 - 0.0 - - 10 - - - -
24/05:30am 13.0 W 5 6 1011.9 - 0.0 - - 10 - - - -
24/05:00am 14.3 WSW 6 7 1011.7 - 0.0 - - 10 - - - -
24/04:30am 14.0 SW 3 7 1011.3 - 0.0 - - 10 - - - -
24/04:00am 14.3 SW 5 7 1010.8 - 0.0 - - 10 - - - -
24/03:30am 14.3 WSW 6 7 1010.5 - 0.0 - - 10 - - - -
24/03:00am 15.4 SW 7 10 1010.5 - 0.0 - - 10 - - - -
24/02:30am 15.6 SSW 8 10 1010.4 - 0.0 - - 10 - - - -
24/02:00am 16.2 SSW 8 11 1010.4 - 0.0 - - 10 - - - -
24/01:30am 17.0 S 15 20 1010.4 - 0.0 - Partly cloudy 10 - - - -
24/01:00am 17.2 S 15 18 1010.6 - 0.0 - Partly cloudy 10 - - - -
24/12:30am 17.1 S 14 17 1010.6 - 0.0 - Partly cloudy 10 - - - -
24/12:00am 17.3 S 15 19 1010.8 - 0.0 - - 10 - - - -
 
Date/Time
CDT
Temp

°C
Wind Pressure Rain
since 9am
mm
Weather Cloud Vis
km
Sea
Height
m
Swell
Dir
 
Speed
knots
Gust
knots
hPa Trend Height
m
Period
s
Dir
23/11:30pm 17.4 S 14 18 1011.2 - 0.0 - Partly cloudy 10 - - - -
23/11:00pm 17.5 S 13 18 1010.7 - 0.0 - Partly cloudy 10 - - - -
23/10:30pm 17.7 S 15 19 1010.3 - 0.0 - Partly cloudy 10 - - - -
23/10:00pm 17.9 S 14 18 1010.0 - 0.0 - Partly cloudy 10 - - - -
23/09:30pm 18.1 S 12 16 1009.9 - 0.0 - - 10 - - - -
23/09:00pm 18.2 S 11 15 1009.6 - 0.0 - - 10 - - - -
23/08:30pm 18.9 SSE 12 16 1009.5 - 0.0 - - 10 - - - -
23/08:00pm 19.7 SSE 13 16 1009.4 - 0.0 - - 10 - - - -
23/07:30pm 20.3 SSE 9 11 1009.0 - 0.0 - - 10 - - - -
23/07:00pm 21.1 SSE 8 9 1009.0 - 0.0 - Partly cloudy 10 - - - -
23/06:30pm 22.0 SSE 7 9 1009.0 - 0.0 - Partly cloudy 10 - - - -

Other Formats:

Comma delimited format used in spreadsheet applications
http://www.bom.gov.au/fwo/IDS60701/IDS60701.95661.axf

JavaScript Object Notation format (JSON) in row-major order
http://www.bom.gov.au/fwo/IDS60701/IDS60701.95661.json